createdAt,value
2019-06-08T00:00:47.946Z,24.98
2019-06-08T00:02:53.506Z,23.85
2019-06-08T00:04:59.094Z,23.38
2019-06-08T00:07:04.760Z,25.10
2019-06-08T00:09:10.318Z,26.00
2019-06-08T00:11:16.870Z,24.72
2019-06-08T00:13:23.260Z,25.82
2019-06-08T00:15:29.012Z,25.62
2019-06-08T00:17:38.780Z,25.75
2019-06-08T00:19:41.844Z,27.13
2019-06-08T00:21:47.399Z,24.47
2019-06-08T00:23:52.927Z,22.10
2019-06-08T00:25:58.475Z,24.07
2019-06-08T00:28:04.110Z,23.50
2019-06-08T00:30:09.822Z,22.93
2019-06-08T00:32:16.151Z,23.62
2019-06-08T00:34:22.698Z,21.82
2019-06-08T00:36:28.331Z,22.93
2019-06-08T00:38:33.946Z,23.10
2019-06-08T00:40:39.513Z,23.47
2019-06-08T00:42:45.068Z,23.25
2019-06-08T00:44:50.620Z,23.83
2019-06-08T00:46:56.194Z,23.02
2019-06-08T00:49:01.817Z,24.87
2019-06-08T00:51:07.431Z,23.10
2019-06-08T00:53:13.057Z,23.92
2019-06-08T00:55:19.463Z,23.35
2019-06-08T00:57:26.047Z,25.20
2019-06-08T00:59:31.768Z,24.75
2019-06-08T01:01:37.329Z,25.23
2019-06-08T01:03:42.853Z,24.63
2019-06-08T01:05:48.505Z,24.00
2019-06-08T01:07:54.134Z,24.75
2019-06-08T01:09:59.666Z,24.35
2019-06-08T01:12:06.448Z,24.85
2019-06-08T01:14:12.002Z,25.05
2019-06-08T01:16:18.725Z,25.48
2019-06-08T01:18:25.800Z,25.48
2019-06-08T01:20:31.505Z,26.20
2019-06-08T01:22:37.196Z,27.35
2019-06-08T01:24:43.727Z,28.50
2019-06-08T01:26:49.273Z,29.63
2019-06-08T01:28:54.815Z,30.25
2019-06-08T01:31:00.444Z,27.60
2019-06-08T01:33:05.994Z,28.60
2019-06-08T01:35:11.768Z,28.70
2019-06-08T01:37:17.334Z,26.93
2019-06-08T01:39:23.064Z,25.80
2019-06-08T01:41:29.626Z,26.25
2019-06-08T01:43:35.353Z,27.62
2019-06-08T01:45:40.908Z,27.20
2019-06-08T01:47:46.459Z,26.80
2019-06-08T01:49:52.029Z,27.93
2019-06-08T01:51:57.544Z,28.30
2019-06-08T01:54:03.090Z,25.75
2019-06-08T01:56:08.742Z,28.02
2019-06-08T01:58:14.359Z,27.52
2019-06-08T02:00:29.828Z,28.23
2019-06-08T02:02:27.911Z,27.02
2019-06-08T02:04:34.721Z,27.30
2019-06-08T02:06:40.646Z,25.97
2019-06-08T02:08:46.307Z,27.90
2019-06-08T02:10:51.935Z,28.67
2019-06-08T02:12:57.513Z,28.17
2019-06-08T02:15:03.764Z,26.45
2019-06-08T02:17:10.509Z,30.92
2019-06-08T02:19:16.046Z,29.32
2019-06-08T02:21:21.609Z,27.32
2019-06-08T02:23:27.156Z,29.75
2019-06-08T02:25:33.602Z,27.62
2019-06-08T02:27:39.721Z,28.52
2019-06-08T02:29:45.367Z,28.98
2019-06-08T02:31:50.912Z,28.42
2019-06-08T02:33:56.468Z,28.52
2019-06-08T02:36:02.021Z,26.97
2019-06-08T02:38:08.104Z,27.50
2019-06-08T02:40:15.636Z,28.60
2019-06-08T02:42:21.189Z,27.20
2019-06-08T02:44:28.279Z,26.57
2019-06-08T02:46:35.940Z,26.02
2019-06-08T02:49:00.257Z,24.67
2019-06-08T02:50:56.022Z,25.80
2019-06-08T02:53:01.659Z,27.27
2019-06-08T02:55:07.574Z,26.33
2019-06-08T02:57:14.525Z,27.15
2019-06-08T02:59:23.003Z,26.87
2019-06-08T03:01:31.579Z,26.95
2019-06-08T03:03:38.349Z,27.93
2019-06-08T03:05:44.907Z,27.27
2019-06-08T03:07:53.100Z,29.30
2019-06-08T03:09:59.708Z,28.27
2019-06-08T03:12:05.666Z,27.35
2019-06-08T03:14:11.222Z,28.07
2019-06-08T03:16:16.769Z,28.23
2019-06-08T03:18:22.422Z,27.80
2019-06-08T03:20:28.023Z,26.55
2019-06-08T03:22:34.331Z,28.20
2019-06-08T03:24:44.045Z,29.52
2019-06-08T03:26:48.992Z,27.90
2019-06-08T03:28:54.566Z,27.45
2019-06-08T03:31:00.180Z,27.45
2019-06-08T03:33:05.714Z,26.62
2019-06-08T03:35:11.372Z,25.15
2019-06-08T03:37:16.948Z,25.85
2019-06-08T03:39:22.470Z,27.13
2019-06-08T03:41:28.039Z,27.30
2019-06-08T03:43:35.233Z,27.20
2019-06-08T03:45:42.404Z,27.25
2019-06-08T03:47:48.112Z,27.02
2019-06-08T03:49:57.378Z,27.93
2019-06-08T03:52:00.838Z,26.15
2019-06-08T03:54:06.443Z,26.45
2019-06-08T03:56:12.006Z,27.98
2019-06-08T03:58:17.544Z,28.07
2019-06-08T04:00:23.447Z,29.02
2019-06-08T04:02:28.991Z,26.35
2019-06-08T04:04:34.544Z,28.25
2019-06-08T04:06:41.221Z,27.58
2019-06-08T04:08:47.602Z,30.08
2019-06-08T04:10:54.239Z,26.55
2019-06-08T04:12:59.777Z,27.02
2019-06-08T04:15:08.649Z,28.38
2019-06-08T04:17:14.249Z,25.70
2019-06-08T04:19:20.873Z,27.48
2019-06-08T04:21:26.432Z,28.90
2019-06-08T04:23:31.983Z,28.00
2019-06-08T04:25:38.285Z,25.10
2019-06-08T04:27:44.816Z,26.77
2019-06-08T04:29:50.824Z,26.40
2019-06-08T04:31:56.360Z,26.93
2019-06-08T04:34:01.911Z,25.48
2019-06-08T04:36:07.452Z,23.70
2019-06-08T04:38:13.002Z,25.65
2019-06-08T04:40:18.705Z,25.50
2019-06-08T04:42:24.256Z,25.50
2019-06-08T04:44:29.838Z,22.80
2019-06-08T04:46:35.458Z,24.15
2019-06-08T04:48:42.853Z,23.77
2019-06-08T04:50:49.801Z,23.62
2019-06-08T04:52:55.566Z,23.10
2019-06-08T04:55:01.103Z,23.65
2019-06-08T04:57:06.802Z,22.40
2019-06-08T04:59:12.352Z,21.75
2019-06-08T05:01:17.887Z,21.35
2019-06-08T05:03:23.433Z,21.17
2019-06-08T05:05:29.011Z,20.30
2019-06-08T05:07:34.547Z,22.35
2019-06-08T05:09:41.105Z,22.80
2019-06-08T05:11:47.518Z,22.70
2019-06-08T05:13:53.082Z,21.52
2019-06-08T05:15:58.662Z,20.62
2019-06-08T05:18:04.516Z,19.50
2019-06-08T05:20:11.004Z,19.23
2019-06-08T05:22:16.584Z,19.40
2019-06-08T05:24:22.145Z,20.48
2019-06-08T05:26:27.691Z,20.35
2019-06-08T05:28:33.249Z,19.55
2019-06-08T05:30:39.268Z,18.27
2019-06-08T05:32:45.925Z,18.95
2019-06-08T05:34:51.552Z,17.45
2019-06-08T05:36:57.121Z,16.85
2019-06-08T05:39:02.695Z,17.23
2019-06-08T05:41:08.361Z,15.90
2019-06-08T05:43:13.885Z,14.65
2019-06-08T05:45:20.123Z,15.65
2019-06-08T05:47:25.688Z,16.27
2019-06-08T05:49:31.219Z,14.78
2019-06-08T05:51:36.746Z,13.20
2019-06-08T05:53:42.319Z,13.15
2019-06-08T05:55:48.043Z,13.80
2019-06-08T05:57:53.625Z,12.80
2019-06-08T05:59:59.178Z,13.20
2019-06-08T06:02:04.811Z,13.10
2019-06-08T06:04:10.336Z,12.33
2019-06-08T06:06:15.878Z,11.85
2019-06-08T06:08:21.545Z,12.45
2019-06-08T06:10:28.131Z,12.18
2019-06-08T06:12:33.666Z,13.03
2019-06-08T06:14:39.237Z,12.60
2019-06-08T06:16:44.967Z,12.28
2019-06-08T06:18:52.191Z,10.55
2019-06-08T06:21:10.305Z,11.00
2019-06-08T06:23:05.156Z,11.83
2019-06-08T06:25:11.273Z,11.15
2019-06-08T06:27:16.825Z,11.05
2019-06-08T06:29:22.402Z,10.88
2019-06-08T06:31:27.981Z,10.18
2019-06-08T06:33:33.525Z,10.78
2019-06-08T06:35:39.120Z,10.48
2019-06-08T06:37:45.819Z,9.33
2019-06-08T06:39:52.252Z,10.10
2019-06-08T06:41:57.976Z,10.05
2019-06-08T06:44:03.678Z,9.20
2019-06-08T06:46:09.326Z,9.75
2019-06-08T06:48:14.940Z,10.43
2019-06-08T06:50:21.630Z,10.80
2019-06-08T06:52:27.156Z,10.93
2019-06-08T06:54:32.702Z,11.15
2019-06-08T06:56:38.284Z,10.78
2019-06-08T06:58:45.022Z,11.70
2019-06-08T07:00:51.539Z,14.38
2019-06-08T07:02:57.713Z,11.15
2019-06-08T07:05:03.779Z,11.25
2019-06-08T07:07:09.303Z,9.58
2019-06-08T07:09:14.883Z,9.03
2019-06-08T07:11:20.411Z,9.33
2019-06-08T07:13:25.972Z,8.50
2019-06-08T07:15:31.569Z,8.28
2019-06-08T07:17:37.255Z,9.28
2019-06-08T07:19:42.789Z,8.93
2019-06-08T07:21:48.408Z,9.38
2019-06-08T07:23:56.243Z,9.18
2019-06-08T07:26:01.983Z,8.23
2019-06-08T07:28:07.553Z,8.53
2019-06-08T07:30:13.338Z,7.47
2019-06-08T07:32:18.939Z,7.45
2019-06-08T07:34:24.493Z,7.65
2019-06-08T07:36:30.012Z,7.95
2019-06-08T07:38:36.677Z,8.03
2019-06-08T07:40:42.193Z,8.18
2019-06-08T07:42:49.364Z,8.10
2019-06-08T07:44:55.189Z,8.00
2019-06-08T07:47:00.783Z,8.00
2019-06-08T07:49:06.400Z,8.35
2019-06-08T07:51:12.014Z,7.90
2019-06-08T07:53:17.566Z,7.90
2019-06-08T07:55:23.136Z,8.25
2019-06-08T07:57:28.698Z,8.23
2019-06-08T07:59:34.546Z,7.58
2019-06-08T08:01:40.134Z,7.37
2019-06-08T08:03:45.679Z,7.78
2019-06-08T08:05:53.183Z,7.87
2019-06-08T08:07:59.023Z,7.62
2019-06-08T08:10:10.375Z,7.92
2019-06-08T08:12:16.016Z,7.85
2019-06-08T08:14:21.552Z,8.10
2019-06-08T08:16:27.312Z,8.45
2019-06-08T08:18:33.521Z,8.98
2019-06-08T08:20:39.169Z,8.95
2019-06-08T08:22:44.730Z,9.38
2019-06-08T08:24:53.421Z,10.23
2019-06-08T08:27:02.009Z,8.75
2019-06-08T08:29:04.856Z,9.60
2019-06-08T08:31:11.367Z,8.75
2019-06-08T08:33:18.398Z,8.08
2019-06-08T08:35:24.198Z,7.08
2019-06-08T08:37:29.847Z,7.78
2019-06-08T08:39:37.469Z,8.38
2019-06-08T08:41:43.600Z,7.83
2019-06-08T08:43:51.368Z,7.25
2019-06-08T08:45:59.130Z,7.22
2019-06-08T08:48:21.067Z,8.30
2019-06-08T08:50:12.805Z,8.15
2019-06-08T08:52:18.478Z,7.95
2019-06-08T08:54:27.517Z,7.58
2019-06-08T08:56:32.373Z,7.92
2019-06-08T08:58:38.142Z,7.92
2019-06-08T09:00:43.736Z,8.55
2019-06-08T09:02:59.068Z,8.23
2019-06-08T09:04:59.693Z,8.90
2019-06-08T09:07:07.797Z,8.23
2019-06-08T09:09:11.058Z,8.70
2019-06-08T09:11:17.598Z,9.00
2019-06-08T09:13:23.374Z,11.38
2019-06-08T09:15:31.500Z,14.78
2019-06-08T09:17:38.594Z,14.73
2019-06-08T09:19:43.365Z,15.72
2019-06-08T09:21:48.913Z,16.32
2019-06-08T09:23:56.485Z,16.67
2019-06-08T09:26:09.067Z,15.48
2019-06-08T09:28:09.945Z,14.38
2019-06-08T09:30:18.070Z,13.53
2019-06-08T09:32:22.845Z,13.65
2019-06-08T09:34:28.439Z,14.30
2019-06-08T09:36:33.957Z,12.95
2019-06-08T09:38:39.504Z,14.33
2019-06-08T09:40:45.069Z,13.55
2019-06-08T09:42:51.493Z,13.88
2019-06-08T09:45:00.370Z,12.35
2019-06-08T09:47:09.447Z,13.83
2019-06-08T09:49:12.297Z,12.73
2019-06-08T09:51:18.683Z,12.10
2019-06-08T09:53:34.203Z,11.83
2019-06-08T09:55:31.536Z,11.38
2019-06-08T09:57:38.485Z,12.00
2019-06-08T09:59:44.243Z,11.95
2019-06-08T10:01:49.765Z,11.68
2019-06-08T10:03:56.708Z,11.03
2019-06-08T10:06:08.008Z,11.00
2019-06-08T10:08:09.858Z,11.00
2019-06-08T10:10:17.999Z,10.93
2019-06-08T10:12:22.590Z,11.15
2019-06-08T10:14:28.306Z,11.45
2019-06-08T10:16:33.860Z,10.82
2019-06-08T10:18:39.441Z,11.10
2019-06-08T10:20:44.954Z,11.68
2019-06-08T10:22:50.636Z,10.93
2019-06-08T10:24:58.038Z,10.70
2019-06-08T10:27:03.581Z,10.60
2019-06-08T10:29:10.416Z,10.38
2019-06-08T10:31:17.595Z,10.88
2019-06-08T10:33:23.259Z,10.63
2019-06-08T10:35:28.792Z,9.93
2019-06-08T10:37:34.437Z,10.38
2019-06-08T10:39:39.974Z,9.53
2019-06-08T10:41:45.558Z,10.08
2019-06-08T10:43:51.169Z,9.55
2019-06-08T10:46:00.108Z,9.68
2019-06-08T10:48:04.820Z,9.73
2019-06-08T10:50:15.639Z,10.05
2019-06-08T10:52:20.820Z,9.55
2019-06-08T10:54:27.751Z,10.08
2019-06-08T10:56:33.446Z,10.18
2019-06-08T10:58:38.987Z,9.25
2019-06-08T11:00:44.493Z,9.35
2019-06-08T11:02:50.114Z,9.85
2019-06-08T11:05:00.253Z,9.63
2019-06-08T11:07:05.614Z,9.48
2019-06-08T11:09:14.334Z,10.43
2019-06-08T11:11:19.992Z,10.93
2019-06-08T11:13:24.617Z,9.60
2019-06-08T11:15:30.225Z,9.28
2019-06-08T11:17:37.761Z,9.93
2019-06-08T11:19:42.996Z,9.55
2019-06-08T11:21:48.596Z,10.28
2019-06-08T11:24:07.519Z,9.70
2019-06-08T11:26:04.655Z,10.30
2019-06-08T11:28:14.896Z,10.43
2019-06-08T11:30:23.506Z,9.95
2019-06-08T11:32:23.581Z,10.05
2019-06-08T11:34:29.097Z,9.50
2019-06-08T11:36:34.644Z,9.75
2019-06-08T11:38:40.163Z,8.83
2019-06-08T11:40:47.742Z,8.83
2019-06-08T11:42:53.941Z,7.78
2019-06-08T11:45:00.281Z,7.17
2019-06-08T11:47:09.431Z,6.92
2019-06-08T11:49:14.996Z,6.40
2019-06-08T11:51:20.405Z,6.10
2019-06-08T11:53:28.661Z,6.85
2019-06-08T11:55:33.190Z,6.87
2019-06-08T11:57:40.651Z,6.40
2019-06-08T11:59:48.516Z,6.30
2019-06-08T12:01:54.120Z,6.20
2019-06-08T12:03:59.668Z,5.53
2019-06-08T12:06:06.929Z,5.47
2019-06-08T12:08:12.880Z,4.92
2019-06-08T12:10:18.445Z,5.12
2019-06-08T12:12:23.964Z,5.37
2019-06-08T12:14:29.472Z,5.33
2019-06-08T12:16:34.997Z,5.20
2019-06-08T12:18:40.534Z,4.83
2019-06-08T12:20:48.682Z,4.10
2019-06-08T12:22:53.321Z,4.08
2019-06-08T12:24:58.817Z,4.12
2019-06-08T12:27:19.235Z,3.90
2019-06-08T12:29:13.470Z,4.60
2019-06-08T12:31:22.335Z,3.87
2019-06-08T12:33:30.528Z,3.98
2019-06-08T12:35:33.470Z,3.20
2019-06-08T12:37:38.978Z,2.55
2019-06-08T12:39:44.499Z,2.87
2019-06-08T12:41:49.997Z,2.70
2019-06-08T12:43:57.949Z,2.83
2019-06-08T12:46:02.658Z,3.00
2019-06-08T12:48:13.996Z,1.87
2019-06-08T12:50:16.561Z,2.42
2019-06-08T12:52:22.526Z,1.75
2019-06-08T12:54:28.440Z,1.60
2019-06-08T12:56:34.078Z,1.50
2019-06-08T12:58:39.784Z,1.55
2019-06-08T13:00:45.349Z,1.52
2019-06-08T13:02:51.026Z,1.47
2019-06-08T13:04:56.672Z,1.07
2019-06-08T13:07:02.175Z,1.15
2019-06-08T13:09:10.056Z,1.52
2019-06-08T13:11:15.820Z,1.15
2019-06-08T13:13:24.316Z,1.75
2019-06-08T13:15:30.983Z,1.37
2019-06-08T13:17:38.102Z,1.55
2019-06-08T13:19:43.428Z,1.35
2019-06-08T13:21:48.974Z,1.10
2019-06-08T13:23:55.053Z,1.10
2019-06-08T13:26:00.564Z,1.42
2019-06-08T13:28:12.246Z,1.27
2019-06-08T13:30:17.422Z,1.20
2019-06-08T13:32:22.041Z,1.20
2019-06-08T13:34:28.428Z,1.20
2019-06-08T13:36:34.000Z,1.60
2019-06-08T13:38:40.612Z,1.40
2019-06-08T13:40:48.437Z,1.50
2019-06-08T13:42:53.449Z,1.17
2019-06-08T13:44:59.005Z,1.30
2019-06-08T13:47:04.530Z,1.07
2019-06-08T13:49:10.040Z,1.30
2019-06-08T13:51:18.110Z,1.32
2019-06-08T13:53:27.909Z,1.15
2019-06-08T13:55:47.693Z,1.02
2019-06-08T13:57:37.910Z,1.42
2019-06-08T13:59:44.670Z,1.20
2019-06-08T14:01:53.276Z,1.72
2019-06-08T14:03:58.793Z,1.20
2019-06-08T14:06:04.362Z,1.30
2019-06-08T14:08:11.001Z,1.47
2019-06-08T14:10:22.257Z,1.27
2019-06-08T14:12:30.616Z,1.67
2019-06-08T14:14:34.126Z,1.27
2019-06-08T14:16:39.736Z,1.50
2019-06-08T14:18:45.295Z,1.60
2019-06-08T14:20:54.176Z,1.40
2019-06-08T14:22:58.844Z,1.77
2019-06-08T14:25:10.308Z,1.40
2019-06-08T14:27:13.248Z,1.52
2019-06-08T14:29:21.156Z,1.70
2019-06-08T14:31:29.961Z,1.70
2019-06-08T14:33:33.771Z,1.90
2019-06-08T14:35:39.518Z,2.00
2019-06-08T14:37:45.036Z,1.72
2019-06-08T14:39:50.584Z,1.80
2019-06-08T14:41:57.797Z,1.90
2019-06-08T14:44:03.389Z,1.72
2019-06-08T14:46:08.897Z,1.67
2019-06-08T14:48:14.426Z,1.65
2019-06-08T14:50:21.716Z,2.10
2019-06-08T14:52:29.721Z,2.08
2019-06-08T14:54:35.309Z,2.17
2019-06-08T14:56:40.964Z,2.00
2019-06-08T14:58:48.339Z,1.90
2019-06-08T15:00:53.670Z,2.10
2019-06-08T15:02:59.373Z,2.10
2019-06-08T15:05:07.787Z,2.00
2019-06-08T15:07:13.522Z,1.80
2019-06-08T15:09:19.453Z,2.20
2019-06-08T15:11:27.772Z,2.08
2019-06-08T15:13:32.256Z,2.30
2019-06-08T15:15:38.827Z,2.37
2019-06-08T15:17:44.332Z,1.82
2019-06-08T15:19:49.888Z,1.77
2019-06-08T15:21:55.419Z,1.98
2019-06-08T15:24:01.033Z,2.02
2019-06-08T15:26:20.467Z,1.82
2019-06-08T15:28:13.752Z,2.00
2019-06-08T15:30:20.854Z,2.00
2019-06-08T15:32:27.684Z,1.50
2019-06-08T15:34:33.908Z,1.87
2019-06-08T15:36:39.428Z,1.00
2019-06-08T15:38:47.837Z,1.20
2019-06-08T15:40:52.200Z,1.27
2019-06-08T15:42:58.540Z,1.00
2019-06-08T15:45:08.070Z,1.17
2019-06-08T15:47:13.092Z,1.20
2019-06-08T15:49:18.722Z,0.98
2019-06-08T15:51:24.380Z,0.93
2019-06-08T15:53:32.391Z,1.00
2019-06-08T15:55:37.981Z,0.90
2019-06-08T15:57:43.908Z,0.93
2019-06-08T15:59:49.439Z,1.05
2019-06-08T16:01:54.945Z,1.02
2019-06-08T16:04:03.936Z,1.10
2019-06-08T16:06:08.660Z,1.00
2019-06-08T16:08:14.209Z,0.80
2019-06-08T16:10:19.816Z,1.10
2019-06-08T16:12:26.207Z,1.00
2019-06-08T16:14:32.853Z,1.00
2019-06-08T16:16:38.477Z,1.15
2019-06-08T16:18:44.104Z,1.30
2019-06-08T16:20:49.706Z,0.85
2019-06-08T16:22:55.312Z,1.07
2019-06-08T16:25:00.849Z,1.30
2019-06-08T16:27:07.552Z,1.20
2019-06-08T16:29:14.149Z,1.37
2019-06-08T16:31:19.668Z,1.15
2019-06-08T16:33:27.309Z,1.25
2019-06-08T16:35:33.563Z,1.42
2019-06-08T16:37:39.913Z,1.45
2019-06-08T16:39:45.500Z,1.65
2019-06-08T16:41:51.032Z,1.47
2019-06-08T16:43:57.663Z,2.05
2019-06-08T16:46:03.178Z,1.90
2019-06-08T16:48:08.740Z,1.30
2019-06-08T16:50:24.159Z,2.00
2019-06-08T16:52:21.741Z,1.62
2019-06-08T16:54:28.485Z,1.77
2019-06-08T16:56:34.261Z,1.80
2019-06-08T16:58:39.797Z,1.47
2019-06-08T17:00:45.355Z,1.32
2019-06-08T17:02:50.915Z,2.08
2019-06-08T17:04:56.428Z,1.52
2019-06-08T17:07:02.240Z,1.00
2019-06-08T17:09:08.048Z,1.10
2019-06-08T17:11:13.569Z,1.20
2019-06-08T17:13:20.169Z,1.00
2019-06-08T17:15:25.774Z,1.00
2019-06-08T17:17:32.072Z,1.07
2019-06-08T17:19:38.444Z,1.25
2019-06-08T17:21:44.171Z,1.25
2019-06-08T17:23:49.726Z,2.15
2019-06-08T17:25:55.354Z,2.10
2019-06-08T17:28:02.156Z,2.08
2019-06-08T17:30:08.884Z,2.30
2019-06-08T17:32:14.517Z,2.50
2019-06-08T17:34:21.157Z,2.20
2019-06-08T17:36:28.079Z,2.35
2019-06-08T17:38:33.814Z,1.90
2019-06-08T17:40:40.121Z,1.67
2019-06-08T17:42:45.843Z,1.32
2019-06-08T17:44:51.403Z,1.60
2019-06-08T17:46:56.977Z,1.57
2019-06-08T17:49:02.482Z,1.47
2019-06-08T17:51:07.989Z,1.42
2019-06-08T17:53:13.561Z,1.57
2019-06-08T17:55:19.151Z,1.70
2019-06-08T17:57:24.660Z,1.35
2019-06-08T17:59:30.220Z,1.80
2019-06-08T18:01:36.019Z,1.60
2019-06-08T18:03:42.766Z,1.92
2019-06-08T18:05:49.162Z,1.50
2019-06-08T18:07:57.855Z,1.50
2019-06-08T18:10:08.074Z,1.60
2019-06-08T18:12:14.282Z,1.70
2019-06-08T18:14:20.177Z,1.62
2019-06-08T18:16:27.889Z,1.82
2019-06-08T18:18:34.132Z,1.70
2019-06-08T18:20:42.020Z,2.00
2019-06-08T18:22:49.284Z,1.90
2019-06-08T18:24:54.280Z,1.85
2019-06-08T18:26:59.891Z,2.30
2019-06-08T18:29:07.781Z,1.90
2019-06-08T18:31:12.634Z,2.00
2019-06-08T18:33:21.668Z,2.02
2019-06-08T18:35:27.860Z,2.00
2019-06-08T18:37:34.791Z,2.52
2019-06-08T18:39:42.747Z,2.47
2019-06-08T18:41:48.406Z,4.28
2019-06-08T18:43:54.101Z,5.70
2019-06-08T18:46:02.239Z,9.55
2019-06-08T18:48:08.875Z,11.70
2019-06-08T18:50:14.635Z,7.47
2019-06-08T18:52:22.035Z,4.75
2019-06-08T18:54:28.032Z,4.15
2019-06-08T18:56:36.310Z,5.30
2019-06-08T18:58:42.201Z,5.12
2019-06-08T19:00:51.156Z,5.65
2019-06-08T19:02:57.721Z,5.92
2019-06-08T19:05:02.154Z,5.67
2019-06-08T19:07:08.034Z,5.92
2019-06-08T19:09:13.661Z,5.45
2019-06-08T19:11:19.400Z,5.67
2019-06-08T19:13:27.016Z,4.58
2019-06-08T19:15:34.412Z,3.80
2019-06-08T19:17:45.879Z,3.92
2019-06-08T19:19:51.898Z,4.90
2019-06-08T19:21:54.488Z,4.45
2019-06-08T19:24:00.033Z,4.30
2019-06-08T19:26:07.536Z,3.65
2019-06-08T19:28:12.776Z,4.65
2019-06-08T19:30:20.356Z,4.90
2019-06-08T19:32:27.901Z,6.47
2019-06-08T19:34:33.464Z,5.35
2019-06-08T19:36:41.324Z,6.00
2019-06-08T19:38:50.785Z,6.65
2019-06-08T19:40:53.525Z,7.45
2019-06-08T19:43:01.479Z,11.93
2019-06-08T19:45:08.742Z,14.23
2019-06-08T19:47:14.474Z,16.60
2019-06-08T19:49:20.051Z,16.50
2019-06-08T19:51:27.629Z,17.37
2019-06-08T19:53:32.915Z,27.70
2019-06-08T19:55:39.392Z,25.77
2019-06-08T19:57:46.087Z,19.20
2019-06-08T19:59:52.214Z,12.85
2019-06-08T20:01:59.831Z,17.32
2019-06-08T20:04:07.274Z,16.77
2019-06-08T20:06:14.283Z,12.65
2019-06-08T20:08:19.384Z,9.60
2019-06-08T20:10:24.940Z,9.53
2019-06-08T20:12:30.488Z,9.20
2019-06-08T20:14:37.426Z,9.70
2019-06-08T20:16:43.151Z,10.32
2019-06-08T20:18:51.385Z,14.58
2019-06-08T20:20:58.581Z,17.50
2019-06-08T20:23:04.426Z,10.40
2019-06-08T20:25:11.048Z,9.08
2019-06-08T20:27:17.202Z,10.55
2019-06-08T20:29:22.978Z,12.40
2019-06-08T20:31:28.544Z,14.35
2019-06-08T20:33:37.859Z,12.28
2019-06-08T20:35:43.626Z,11.93
2019-06-08T20:37:50.219Z,13.72
2019-06-08T20:40:07.195Z,19.17
2019-06-08T20:42:04.114Z,11.95
2019-06-08T20:44:09.649Z,9.88
2019-06-08T20:46:17.127Z,7.95
2019-06-08T20:48:22.339Z,8.40
2019-06-08T20:50:27.921Z,7.67
2019-06-08T20:52:34.211Z,7.65
2019-06-08T20:54:39.756Z,8.33
2019-06-08T20:56:47.532Z,7.85
2019-06-08T20:58:53.706Z,7.47
2019-06-08T21:00:59.655Z,7.10
2019-06-08T21:03:07.966Z,7.35
2019-06-08T21:05:12.996Z,7.75
2019-06-08T21:07:18.546Z,7.70
2019-06-08T21:09:24.058Z,7.85
2019-06-08T21:11:29.635Z,7.72
2019-06-08T21:13:37.360Z,7.85
2019-06-08T21:15:42.380Z,9.75
2019-06-08T21:17:50.691Z,10.32
2019-06-08T21:19:57.744Z,10.28
2019-06-08T21:22:36.493Z,10.18
2019-06-08T21:24:45.767Z,10.95
2019-06-08T21:26:56.520Z,11.03
2019-06-08T21:29:01.971Z,10.60
2019-06-08T21:31:08.476Z,9.63
2019-06-08T21:33:14.297Z,10.05
2019-06-08T21:35:19.844Z,9.40
2019-06-08T21:37:27.895Z,9.50
2019-06-08T21:39:35.788Z,10.30
2019-06-08T21:41:39.749Z,9.93
2019-06-08T21:43:45.336Z,10.28
2019-06-08T21:45:51.941Z,11.00
2019-06-08T21:47:59.973Z,11.57
2019-06-08T21:50:08.092Z,11.95
2019-06-08T21:52:13.306Z,12.58
2019-06-08T21:54:18.901Z,12.23
2019-06-08T21:56:24.556Z,12.05
2019-06-08T21:58:30.109Z,12.63
2019-06-08T22:00:43.053Z,12.33
2019-06-08T22:02:47.935Z,12.85
2019-06-08T22:05:02.696Z,11.78
2019-06-08T22:07:07.682Z,13.00
2019-06-08T22:09:17.665Z,12.07
2019-06-08T22:11:23.222Z,12.55
2019-06-08T22:13:28.854Z,12.47
2019-06-08T22:15:34.969Z,12.07
2019-06-08T22:17:40.471Z,13.48
2019-06-08T22:19:47.721Z,13.28
2019-06-08T22:21:53.736Z,12.98
2019-06-08T22:24:00.789Z,13.20
2019-06-08T22:26:08.331Z,13.55
2019-06-08T22:28:13.777Z,15.25
2019-06-08T22:30:35.204Z,13.53
2019-06-08T22:32:27.680Z,13.28
2019-06-08T22:34:33.546Z,14.15
2019-06-08T22:36:39.111Z,15.40
2019-06-08T22:38:44.724Z,16.17
2019-06-08T22:40:50.248Z,15.85
2019-06-08T22:42:57.786Z,16.40
2019-06-08T22:45:03.921Z,15.83
2019-06-08T22:47:10.511Z,15.20
2019-06-08T22:49:18.473Z,15.55
2019-06-08T22:51:23.251Z,15.40
2019-06-08T22:53:28.788Z,15.65
2019-06-08T22:55:34.350Z,15.40
2019-06-08T22:57:39.869Z,16.95
2019-06-08T22:59:47.612Z,19.30
2019-06-08T23:01:53.374Z,18.05
2019-06-08T23:04:02.267Z,15.70
2019-06-08T23:06:08.897Z,16.32
2019-06-08T23:08:14.388Z,15.43
2019-06-08T23:10:20.082Z,14.63
2019-06-08T23:12:28.667Z,14.63
2019-06-08T23:14:33.729Z,13.40
2019-06-08T23:16:39.258Z,13.58
2019-06-08T23:18:44.803Z,14.05
2019-06-08T23:20:50.366Z,11.93
2019-06-08T23:22:58.213Z,12.82
2019-06-08T23:25:04.431Z,12.82
2019-06-08T23:27:10.136Z,13.08
2019-06-08T23:29:17.749Z,12.90
2019-06-08T23:31:25.650Z,13.85
2019-06-08T23:33:30.072Z,14.03
2019-06-08T23:35:51.343Z,13.03
2019-06-08T23:37:42.825Z,11.97
2019-06-08T23:39:48.360Z,11.45
2019-06-08T23:41:53.891Z,11.65
2019-06-08T23:43:59.562Z,11.73
2019-06-08T23:46:05.716Z,12.40
2019-06-08T23:48:11.385Z,12.25
2019-06-08T23:50:17.898Z,11.93
2019-06-08T23:52:23.559Z,11.38
2019-06-08T23:54:29.157Z,12.85
2019-06-08T23:56:36.937Z,12.88
2019-06-08T23:58:41.845Z,11.40
